sensor_id;sensor_type;location;lat;lon;timestamp;temperature;humidity
49236;DHT22;35067;48.134;8.378;2022-09-17T00:01:00;7.40;99.90
49236;DHT22;35067;48.134;8.378;2022-09-17T00:03:01;7.40;99.90
49236;DHT22;35067;48.134;8.378;2022-09-17T00:05:02;7.20;99.90
49236;DHT22;35067;48.134;8.378;2022-09-17T00:07:02;7.20;99.90
49236;DHT22;35067;48.134;8.378;2022-09-17T00:09:05;7.20;99.90
49236;DHT22;35067;48.134;8.378;2022-09-17T00:11:17;7.20;99.90
49236;DHT22;35067;48.134;8.378;2022-09-17T00:13:20;7.10;99.90
49236;DHT22;35067;48.134;8.378;2022-09-17T00:15:21;7.10;99.90
49236;DHT22;35067;48.134;8.378;2022-09-17T00:17:21;7.20;99.90
49236;DHT22;35067;48.134;8.378;2022-09-17T00:19:22;7.20;99.90
49236;DHT22;35067;48.134;8.378;2022-09-17T00:21:25;7.20;99.90
49236;DHT22;35067;48.134;8.378;2022-09-17T00:23:26;7.20;99.90
49236;DHT22;35067;48.134;8.378;2022-09-17T00:25:27;7.10;99.90
49236;DHT22;35067;48.134;8.378;2022-09-17T00:27:27;7.00;99.90
49236;DHT22;35067;48.134;8.378;2022-09-17T00:29:28;7.00;99.90
49236;DHT22;35067;48.134;8.378;2022-09-17T00:31:29;6.90;99.90
49236;DHT22;35067;48.134;8.378;2022-09-17T00:33:29;6.90;99.90
49236;DHT22;35067;48.134;8.378;2022-09-17T00:35:30;6.90;99.90
49236;DHT22;35067;48.134;8.378;2022-09-17T00:37:30;6.90;99.90
49236;DHT22;35067;48.134;8.378;2022-09-17T00:39:31;6.80;99.90
49236;DHT22;35067;48.134;8.378;2022-09-17T00:41:34;6.90;99.90
49236;DHT22;35067;48.134;8.378;2022-09-17T00:45:35;6.90;99.90
49236;DHT22;35067;48.134;8.378;2022-09-17T00:47:42;6.90;99.90
49236;DHT22;35067;48.134;8.378;2022-09-17T00:49:46;6.80;99.90
49236;DHT22;35067;48.134;8.378;2022-09-17T00:52:03;6.80;99.90
49236;DHT22;35067;48.134;8.378;2022-09-17T00:54:06;6.80;99.90
49236;DHT22;35067;48.134;8.378;2022-09-17T00:56:13;6.70;99.90
49236;DHT22;35067;48.134;8.378;2022-09-17T00:58:18;6.70;99.90
49236;DHT22;35067;48.134;8.378;2022-09-17T01:00:20;6.70;99.90
49236;DHT22;35067;48.134;8.378;2022-09-17T01:02:22;6.80;99.90
49236;DHT22;35067;48.134;8.378;2022-09-17T01:04:25;6.80;99.90
49236;DHT22;35067;48.134;8.378;2022-09-17T01:06:47;6.70;99.90
49236;DHT22;35067;48.134;8.378;2022-09-17T01:16:24;6.80;99.90
49236;DHT22;35067;48.134;8.378;2022-09-17T01:28:27;7.10;99.90
49236;DHT22;35067;48.134;8.378;2022-09-17T01:32:57;7.10;99.90
49236;DHT22;35067;48.134;8.378;2022-09-17T01:35:12;7.00;99.90
49236;DHT22;35067;48.134;8.378;2022-09-17T01:37:33;7.00;99.90
49236;DHT22;35067;48.134;8.378;2022-09-17T01:39:49;7.00;99.90
49236;DHT22;35067;48.134;8.378;2022-09-17T01:42:16;6.90;99.90
49236;DHT22;35067;48.134;8.378;2022-09-17T01:44:33;6.80;99.90
49236;DHT22;35067;48.134;8.378;2022-09-17T01:46:42;6.80;99.90
49236;DHT22;35067;48.134;8.378;2022-09-17T01:48:47;6.70;99.90
49236;DHT22;35067;48.134;8.378;2022-09-17T01:50:54;6.70;99.90
49236;DHT22;35067;48.134;8.378;2022-09-17T01:52:57;6.70;99.90
49236;DHT22;35067;48.134;8.378;2022-09-17T01:55:02;6.80;99.90
49236;DHT22;35067;48.134;8.378;2022-09-17T01:57:15;6.80;99.90
49236;DHT22;35067;48.134;8.378;2022-09-17T01:59:19;6.80;99.90
49236;DHT22;35067;48.134;8.378;2022-09-17T02:01:23;6.70;99.90
49236;DHT22;35067;48.134;8.378;2022-09-17T02:03:28;6.80;99.90
49236;DHT22;35067;48.134;8.378;2022-09-17T02:05:42;6.70;99.90
49236;DHT22;35067;48.134;8.378;2022-09-17T02:07:51;6.80;99.90
49236;DHT22;35067;48.134;8.378;2022-09-17T02:09:58;6.80;99.90
49236;DHT22;35067;48.134;8.378;2022-09-17T02:12:03;6.90;99.90
49236;DHT22;35067;48.134;8.378;2022-09-17T02:14:11;6.90;99.90
49236;DHT22;35067;48.134;8.378;2022-09-17T02:16:18;7.00;99.90
49236;DHT22;35067;48.134;8.378;2022-09-17T02:23:21;7.00;99.90
49236;DHT22;35067;48.134;8.378;2022-09-17T02:25:35;7.00;99.90
49236;DHT22;35067;48.134;8.378;2022-09-17T02:27:46;7.00;99.90
49236;DHT22;35067;48.134;8.378;2022-09-17T02:29:50;7.10;99.90
49236;DHT22;35067;48.134;8.378;2022-09-17T02:31:51;7.20;99.90
49236;DHT22;35067;48.134;8.378;2022-09-17T02:33:54;7.30;99.90
49236;DHT22;35067;48.134;8.378;2022-09-17T02:35:56;7.30;99.90
49236;DHT22;35067;48.134;8.378;2022-09-17T02:37:56;7.20;99.90
49236;DHT22;35067;48.134;8.378;2022-09-17T02:39:57;7.20;99.90
49236;DHT22;35067;48.134;8.378;2022-09-17T02:42:27;7.20;99.90
49236;DHT22;35067;48.134;8.378;2022-09-17T02:56:21;6.90;99.90
49236;DHT22;35067;48.134;8.378;2022-09-17T02:58:31;6.90;99.90
49236;DHT22;35067;48.134;8.378;2022-09-17T03:00:33;6.80;99.90
49236;DHT22;35067;48.134;8.378;2022-09-17T03:04:56;6.90;99.90
49236;DHT22;35067;48.134;8.378;2022-09-17T03:06:57;6.90;99.90
49236;DHT22;35067;48.134;8.378;2022-09-17T03:08:58;6.90;99.90
49236;DHT22;35067;48.134;8.378;2022-09-17T03:10:59;6.80;99.90
49236;DHT22;35067;48.134;8.378;2022-09-17T03:13:00;6.90;99.90
49236;DHT22;35067;48.134;8.378;2022-09-17T03:15:00;6.80;99.90
49236;DHT22;35067;48.134;8.378;2022-09-17T03:17:01;6.80;99.90
49236;DHT22;35067;48.134;8.378;2022-09-17T03:19:02;6.80;99.90
49236;DHT22;35067;48.134;8.378;2022-09-17T03:21:03;6.80;99.90
49236;DHT22;35067;48.134;8.378;2022-09-17T03:23:04;6.70;99.90
49236;DHT22;35067;48.134;8.378;2022-09-17T03:25:04;6.80;99.90
49236;DHT22;35067;48.134;8.378;2022-09-17T03:27:05;6.80;99.90
49236;DHT22;35067;48.134;8.378;2022-09-17T03:29:06;6.80;99.90
49236;DHT22;35067;48.134;8.378;2022-09-17T03:31:06;6.80;99.90
49236;DHT22;35067;48.134;8.378;2022-09-17T03:33:07;6.70;99.90
49236;DHT22;35067;48.134;8.378;2022-09-17T03:35:07;6.70;99.90
49236;DHT22;35067;48.134;8.378;2022-09-17T03:37:08;6.80;99.90
49236;DHT22;35067;48.134;8.378;2022-09-17T03:39:08;6.80;99.90
49236;DHT22;35067;48.134;8.378;2022-09-17T03:41:09;6.90;99.90
49236;DHT22;35067;48.134;8.378;2022-09-17T03:43:10;6.90;99.90
49236;DHT22;35067;48.134;8.378;2022-09-17T03:45:11;6.90;99.90
49236;DHT22;35067;48.134;8.378;2022-09-17T03:47:12;6.80;99.90
49236;DHT22;35067;48.134;8.378;2022-09-17T03:49:12;6.70;99.90
49236;DHT22;35067;48.134;8.378;2022-09-17T03:51:13;6.70;99.90
49236;DHT22;35067;48.134;8.378;2022-09-17T03:53:14;6.70;99.90
49236;DHT22;35067;48.134;8.378;2022-09-17T03:55:15;6.80;99.90
49236;DHT22;35067;48.134;8.378;2022-09-17T03:57:16;6.90;99.90
49236;DHT22;35067;48.134;8.378;2022-09-17T03:59:17;6.80;99.90
49236;DHT22;35067;48.134;8.378;2022-09-17T04:01:17;6.80;99.90
49236;DHT22;35067;48.134;8.378;2022-09-17T04:03:18;6.80;99.90
49236;DHT22;35067;48.134;8.378;2022-09-17T04:05:19;6.60;99.90
49236;DHT22;35067;48.134;8.378;2022-09-17T04:07:19;6.60;99.90
49236;DHT22;35067;48.134;8.378;2022-09-17T04:09:20;6.60;99.90
49236;DHT22;35067;48.134;8.378;2022-09-17T04:11:20;6.50;99.90
49236;DHT22;35067;48.134;8.378;2022-09-17T04:13:21;6.50;99.90
49236;DHT22;35067;48.134;8.378;2022-09-17T04:15:21;6.60;99.90
49236;DHT22;35067;48.134;8.378;2022-09-17T04:17:22;6.60;99.90
49236;DHT22;35067;48.134;8.378;2022-09-17T04:19:22;6.60;99.90
49236;DHT22;35067;48.134;8.378;2022-09-17T04:21:23;6.70;99.90
49236;DHT22;35067;48.134;8.378;2022-09-17T04:23:23;6.60;99.90
49236;DHT22;35067;48.134;8.378;2022-09-17T04:25:24;6.60;99.90
49236;DHT22;35067;48.134;8.378;2022-09-17T04:27:25;6.60;99.90
49236;DHT22;35067;48.134;8.378;2022-09-17T04:29:25;6.70;99.90
49236;DHT22;35067;48.134;8.378;2022-09-17T04:31:26;6.60;99.90
49236;DHT22;35067;48.134;8.378;2022-09-17T04:33:26;6.50;99.90
49236;DHT22;35067;48.134;8.378;2022-09-17T04:35:27;6.60;99.90
49236;DHT22;35067;48.134;8.378;2022-09-17T04:37:28;6.60;99.90
49236;DHT22;35067;48.134;8.378;2022-09-17T04:39:28;6.60;99.90
49236;DHT22;35067;48.134;8.378;2022-09-17T04:41:29;6.60;99.90
49236;DHT22;35067;48.134;8.378;2022-09-17T04:43:29;6.70;99.90
49236;DHT22;35067;48.134;8.378;2022-09-17T04:45:30;6.60;99.90
49236;DHT22;35067;48.134;8.378;2022-09-17T04:47:32;6.70;99.90
49236;DHT22;35067;48.134;8.378;2022-09-17T04:49:33;6.60;99.90
49236;DHT22;35067;48.134;8.378;2022-09-17T04:51:33;6.70;99.90
49236;DHT22;35067;48.134;8.378;2022-09-17T04:53:34;6.70;99.90
49236;DHT22;35067;48.134;8.378;2022-09-17T04:55:35;6.70;99.90
49236;DHT22;35067;48.134;8.378;2022-09-17T04:57:36;6.70;99.90
49236;DHT22;35067;48.134;8.378;2022-09-17T04:59:36;6.70;99.90
49236;DHT22;35067;48.134;8.378;2022-09-17T05:01:37;6.70;99.90
49236;DHT22;35067;48.134;8.378;2022-09-17T05:03:37;6.70;99.90
49236;DHT22;35067;48.134;8.378;2022-09-17T05:05:38;6.60;99.90
49236;DHT22;35067;48.134;8.378;2022-09-17T05:07:39;6.60;99.90
49236;DHT22;35067;48.134;8.378;2022-09-17T05:09:40;6.80;99.90
49236;DHT22;35067;48.134;8.378;2022-09-17T05:11:41;6.70;99.90
49236;DHT22;35067;48.134;8.378;2022-09-17T05:13:41;6.70;99.90
49236;DHT22;35067;48.134;8.378;2022-09-17T05:15:42;6.70;99.90
49236;DHT22;35067;48.134;8.378;2022-09-17T05:17:43;6.60;99.90
49236;DHT22;35067;48.134;8.378;2022-09-17T05:19:43;6.70;99.90
49236;DHT22;35067;48.134;8.378;2022-09-17T05:21:44;6.70;99.90
49236;DHT22;35067;48.134;8.378;2022-09-17T05:23:44;6.70;99.90
49236;DHT22;35067;48.134;8.378;2022-09-17T05:25:45;6.80;99.90
49236;DHT22;35067;48.134;8.378;2022-09-17T05:27:46;6.80;99.90
49236;DHT22;35067;48.134;8.378;2022-09-17T05:29:46;6.90;99.90
49236;DHT22;35067;48.134;8.378;2022-09-17T05:31:47;6.80;99.90
49236;DHT22;35067;48.134;8.378;2022-09-17T05:33:47;6.70;99.90
49236;DHT22;35067;48.134;8.378;2022-09-17T05:35:48;6.70;99.90
49236;DHT22;35067;48.134;8.378;2022-09-17T05:37:48;6.70;99.90
49236;DHT22;35067;48.134;8.378;2022-09-17T05:39:49;6.80;99.90
49236;DHT22;35067;48.134;8.378;2022-09-17T05:41:51;7.00;99.90
49236;DHT22;35067;48.134;8.378;2022-09-17T05:43:51;6.90;99.90
49236;DHT22;35067;48.134;8.378;2022-09-17T05:45:52;6.90;99.90
49236;DHT22;35067;48.134;8.378;2022-09-17T05:47:58;6.70;99.90
49236;DHT22;35067;48.134;8.378;2022-09-17T05:49:59;6.70;99.90
49236;DHT22;35067;48.134;8.378;2022-09-17T05:52:00;6.70;99.90
49236;DHT22;35067;48.134;8.378;2022-09-17T05:54:00;6.70;99.90
49236;DHT22;35067;48.134;8.378;2022-09-17T05:56:01;6.60;99.90
49236;DHT22;35067;48.134;8.378;2022-09-17T05:58:16;6.60;99.90
49236;DHT22;35067;48.134;8.378;2022-09-17T06:00:17;6.60;99.90
49236;DHT22;35067;48.134;8.378;2022-09-17T06:02:18;6.80;99.90
49236;DHT22;35067;48.134;8.378;2022-09-17T06:04:18;6.80;99.90
49236;DHT22;35067;48.134;8.378;2022-09-17T06:06:19;6.80;99.90
49236;DHT22;35067;48.134;8.378;2022-09-17T06:08:20;6.70;99.90
49236;DHT22;35067;48.134;8.378;2022-09-17T06:10:20;6.70;99.90
49236;DHT22;35067;48.134;8.378;2022-09-17T06:12:21;6.80;99.90
49236;DHT22;35067;48.134;8.378;2022-09-17T06:14:22;6.90;99.90
49236;DHT22;35067;48.134;8.378;2022-09-17T06:16:23;6.90;99.90
49236;DHT22;35067;48.134;8.378;2022-09-17T06:18:24;7.10;99.90
49236;DHT22;35067;48.134;8.378;2022-09-17T06:20:24;7.10;99.90
49236;DHT22;35067;48.134;8.378;2022-09-17T06:22:25;7.20;99.90
49236;DHT22;35067;48.134;8.378;2022-09-17T06:24:25;7.20;99.90
49236;DHT22;35067;48.134;8.378;2022-09-17T06:26:26;7.00;99.90
49236;DHT22;35067;48.134;8.378;2022-09-17T06:28:27;7.10;99.90
49236;DHT22;35067;48.134;8.378;2022-09-17T06:30:28;7.00;99.90
49236;DHT22;35067;48.134;8.378;2022-09-17T06:32:28;7.00;99.90
49236;DHT22;35067;48.134;8.378;2022-09-17T06:34:29;6.90;99.90
49236;DHT22;35067;48.134;8.378;2022-09-17T06:36:29;6.90;99.90
49236;DHT22;35067;48.134;8.378;2022-09-17T06:38:32;6.80;99.90
49236;DHT22;35067;48.134;8.378;2022-09-17T06:40:33;7.00;99.90
49236;DHT22;35067;48.134;8.378;2022-09-17T06:42:33;7.00;99.90
49236;DHT22;35067;48.134;8.378;2022-09-17T06:44:34;7.10;99.90
49236;DHT22;35067;48.134;8.378;2022-09-17T06:46:35;7.00;99.90
49236;DHT22;35067;48.134;8.378;2022-09-17T06:48:36;7.10;99.90
49236;DHT22;35067;48.134;8.378;2022-09-17T06:50:37;7.10;99.90
49236;DHT22;35067;48.134;8.378;2022-09-17T06:52:38;7.20;99.90
49236;DHT22;35067;48.134;8.378;2022-09-17T06:54:38;7.20;99.90
49236;DHT22;35067;48.134;8.378;2022-09-17T06:56:39;7.20;99.90
49236;DHT22;35067;48.134;8.378;2022-09-17T06:58:39;7.20;99.90
49236;DHT22;35067;48.134;8.378;2022-09-17T07:00:43;7.20;99.90
49236;DHT22;35067;48.134;8.378;2022-09-17T07:02:54;7.30;99.90
49236;DHT22;35067;48.134;8.378;2022-09-17T07:04:55;7.30;99.90
49236;DHT22;35067;48.134;8.378;2022-09-17T07:06:56;7.40;99.90
49236;DHT22;35067;48.134;8.378;2022-09-17T07:08:57;7.40;99.90
49236;DHT22;35067;48.134;8.378;2022-09-17T07:10:57;7.60;99.90
49236;DHT22;35067;48.134;8.378;2022-09-17T07:12:58;7.60;99.90
49236;DHT22;35067;48.134;8.378;2022-09-17T07:14:58;7.70;99.90
49236;DHT22;35067;48.134;8.378;2022-09-17T07:16:59;7.90;99.90
49236;DHT22;35067;48.134;8.378;2022-09-17T07:19:03;8.10;99.90
49236;DHT22;35067;48.134;8.378;2022-09-17T07:21:05;8.20;99.90
49236;DHT22;35067;48.134;8.378;2022-09-17T07:23:05;8.30;99.90
49236;DHT22;35067;48.134;8.378;2022-09-17T07:25:06;8.10;99.90
49236;DHT22;35067;48.134;8.378;2022-09-17T07:27:07;8.40;99.90
49236;DHT22;35067;48.134;8.378;2022-09-17T07:29:08;8.30;99.90
49236;DHT22;35067;48.134;8.378;2022-09-17T07:31:09;8.50;99.90
49236;DHT22;35067;48.134;8.378;2022-09-17T07:33:11;8.40;99.90
49236;DHT22;35067;48.134;8.378;2022-09-17T07:35:11;8.40;99.90
49236;DHT22;35067;48.134;8.378;2022-09-17T07:37:12;8.50;99.90
49236;DHT22;35067;48.134;8.378;2022-09-17T07:39:12;8.70;99.90
49236;DHT22;35067;48.134;8.378;2022-09-17T07:41:15;8.60;99.90
49236;DHT22;35067;48.134;8.378;2022-09-17T07:43:16;8.90;99.90
49236;DHT22;35067;48.134;8.378;2022-09-17T07:45:17;8.80;99.90
49236;DHT22;35067;48.134;8.378;2022-09-17T07:47:18;8.80;99.90
49236;DHT22;35067;48.134;8.378;2022-09-17T07:49:19;8.80;99.90
49236;DHT22;35067;48.134;8.378;2022-09-17T07:51:24;8.60;99.90
49236;DHT22;35067;48.134;8.378;2022-09-17T07:53:26;8.50;99.90
49236;DHT22;35067;48.134;8.378;2022-09-17T07:55:26;8.60;99.90
49236;DHT22;35067;48.134;8.378;2022-09-17T07:57:27;8.50;99.90
49236;DHT22;35067;48.134;8.378;2022-09-17T07:59:27;8.50;99.90
49236;DHT22;35067;48.134;8.378;2022-09-17T08:01:28;8.60;99.90
49236;DHT22;35067;48.134;8.378;2022-09-17T08:03:30;8.60;99.90
49236;DHT22;35067;48.134;8.378;2022-09-17T08:05:31;8.80;99.90
49236;DHT22;35067;48.134;8.378;2022-09-17T08:07:32;9.00;99.90
49236;DHT22;35067;48.134;8.378;2022-09-17T08:09:32;9.10;99.90
49236;DHT22;35067;48.134;8.378;2022-09-17T08:11:33;9.00;99.90
49236;DHT22;35067;48.134;8.378;2022-09-17T08:13:34;8.90;99.90
49236;DHT22;35067;48.134;8.378;2022-09-17T08:15:34;8.90;99.90
49236;DHT22;35067;48.134;8.378;2022-09-17T08:17:35;9.00;99.90
49236;DHT22;35067;48.134;8.378;2022-09-17T08:19:37;9.00;99.90
49236;DHT22;35067;48.134;8.378;2022-09-17T08:21:37;8.90;99.90
49236;DHT22;35067;48.134;8.378;2022-09-17T08:23:40;8.90;99.90
49236;DHT22;35067;48.134;8.378;2022-09-17T08:25:41;9.10;99.90
49236;DHT22;35067;48.134;8.378;2022-09-17T08:27:41;9.20;99.90
49236;DHT22;35067;48.134;8.378;2022-09-17T08:29:42;9.30;99.90
49236;DHT22;35067;48.134;8.378;2022-09-17T08:31:43;9.30;99.90
49236;DHT22;35067;48.134;8.378;2022-09-17T08:33:44;9.20;99.90
49236;DHT22;35067;48.134;8.378;2022-09-17T08:35:52;9.00;99.90
49236;DHT22;35067;48.134;8.378;2022-09-17T08:37:56;9.20;99.90
49236;DHT22;35067;48.134;8.378;2022-09-17T08:39:56;9.50;99.90
49236;DHT22;35067;48.134;8.378;2022-09-17T08:44:29;9.40;99.90
49236;DHT22;35067;48.134;8.378;2022-09-17T08:47:30;9.40;99.90
49236;DHT22;35067;48.134;8.378;2022-09-17T08:49:37;9.00;99.90
49236;DHT22;35067;48.134;8.378;2022-09-17T08:51:47;9.00;99.90
49236;DHT22;35067;48.134;8.378;2022-09-17T08:56:01;8.80;99.90
49236;DHT22;35067;48.134;8.378;2022-09-17T08:58:36;8.60;99.90
49236;DHT22;35067;48.134;8.378;2022-09-17T09:05:19;8.30;99.90
49236;DHT22;35067;48.134;8.378;2022-09-17T09:07:26;8.50;99.90
49236;DHT22;35067;48.134;8.378;2022-09-17T09:09:33;8.40;99.90
49236;DHT22;35067;48.134;8.378;2022-09-17T09:11:35;8.70;99.90
49236;DHT22;35067;48.134;8.378;2022-09-17T09:14:09;8.70;99.90
49236;DHT22;35067;48.134;8.378;2022-09-17T09:16:18;8.70;99.90
49236;DHT22;35067;48.134;8.378;2022-09-17T09:18:26;8.70;99.90
49236;DHT22;35067;48.134;8.378;2022-09-17T09:23:29;8.60;99.90
49236;DHT22;35067;48.134;8.378;2022-09-17T09:25:40;8.20;99.90
49236;DHT22;35067;48.134;8.378;2022-09-17T09:30:11;8.20;99.90
49236;DHT22;35067;48.134;8.378;2022-09-17T09:34:33;8.60;99.90
49236;DHT22;35067;48.134;8.378;2022-09-17T09:36:36;8.60;99.90
49236;DHT22;35067;48.134;8.378;2022-09-17T09:40:47;8.40;99.90
49236;DHT22;35067;48.134;8.378;2022-09-17T09:42:52;8.40;99.90
49236;DHT22;35067;48.134;8.378;2022-09-17T09:45:00;8.30;99.90
49236;DHT22;35067;48.134;8.378;2022-09-17T09:50:48;8.30;99.90
49236;DHT22;35067;48.134;8.378;2022-09-17T09:52:41;8.40;99.90
49236;DHT22;35067;48.134;8.378;2022-09-17T09:54:58;8.40;99.90
49236;DHT22;35067;48.134;8.378;2022-09-17T09:57:17;8.40;99.90
49236;DHT22;35067;48.134;8.378;2022-09-17T09:59:19;8.50;99.90
49236;DHT22;35067;48.134;8.378;2022-09-17T10:01:20;8.50;99.90
49236;DHT22;35067;48.134;8.378;2022-09-17T10:03:28;8.30;99.90
49236;DHT22;35067;48.134;8.378;2022-09-17T10:05:31;8.40;99.90
49236;DHT22;35067;48.134;8.378;2022-09-17T10:07:42;8.50;99.90
49236;DHT22;35067;48.134;8.378;2022-09-17T10:09:45;8.60;99.90
49236;DHT22;35067;48.134;8.378;2022-09-17T10:14:23;8.90;99.90
49236;DHT22;35067;48.134;8.378;2022-09-17T10:16:26;8.80;99.90
49236;DHT22;35067;48.134;8.378;2022-09-17T10:18:28;8.90;99.90
49236;DHT22;35067;48.134;8.378;2022-09-17T10:20:29;9.20;99.90
49236;DHT22;35067;48.134;8.378;2022-09-17T10:22:34;9.10;99.90
49236;DHT22;35067;48.134;8.378;2022-09-17T10:24:37;9.40;99.90
49236;DHT22;35067;48.134;8.378;2022-09-17T10:26:38;9.60;99.90
49236;DHT22;35067;48.134;8.378;2022-09-17T10:28:52;9.60;99.90
49236;DHT22;35067;48.134;8.378;2022-09-17T10:31:02;10.00;99.90
49236;DHT22;35067;48.134;8.378;2022-09-17T10:33:22;10.90;99.90
49236;DHT22;35067;48.134;8.378;2022-09-17T10:35:25;11.30;99.10
49236;DHT22;35067;48.134;8.378;2022-09-17T10:37:33;11.80;99.30
49236;DHT22;35067;48.134;8.378;2022-09-17T10:39:35;12.20;96.60
49236;DHT22;35067;48.134;8.378;2022-09-17T10:42:02;12.40;97.60
49236;DHT22;35067;48.134;8.378;2022-09-17T10:44:16;12.00;96.30
49236;DHT22;35067;48.134;8.378;2022-09-17T10:46:25;11.50;92.10
49236;DHT22;35067;48.134;8.378;2022-09-17T10:48:35;11.20;96.60
49236;DHT22;35067;48.134;8.378;2022-09-17T10:50:37;11.10;97.40
49236;DHT22;35067;48.134;8.378;2022-09-17T10:52:39;10.90;96.40
49236;DHT22;35067;48.134;8.378;2022-09-17T10:57:03;11.20;96.50
49236;DHT22;35067;48.134;8.378;2022-09-17T11:09:09;9.80;99.90
49236;DHT22;35067;48.134;8.378;2022-09-17T11:18:33;9.60;99.90
49236;DHT22;35067;48.134;8.378;2022-09-17T11:23:53;10.30;99.90
49236;DHT22;35067;48.134;8.378;2022-09-17T11:26:04;10.30;99.90
49236;DHT22;35067;48.134;8.378;2022-09-17T11:30:32;10.50;99.90
49236;DHT22;35067;48.134;8.378;2022-09-17T11:35:00;11.00;99.90
49236;DHT22;35067;48.134;8.378;2022-09-17T11:37:08;10.70;99.90
49236;DHT22;35067;48.134;8.378;2022-09-17T11:39:18;10.40;99.90
49236;DHT22;35067;48.134;8.378;2022-09-17T11:41:35;9.60;99.90
49236;DHT22;35067;48.134;8.378;2022-09-17T11:43:39;9.30;99.90
49236;DHT22;35067;48.134;8.378;2022-09-17T11:46:26;8.90;99.90
49236;DHT22;35067;48.134;8.378;2022-09-17T11:48:46;9.20;99.90
49236;DHT22;35067;48.134;8.378;2022-09-17T11:51:11;10.00;99.90
49236;DHT22;35067;48.134;8.378;2022-09-17T11:53:36;10.60;99.90
49236;DHT22;35067;48.134;8.378;2022-09-17T11:55:58;10.60;99.90
49236;DHT22;35067;48.134;8.378;2022-09-17T11:58:06;10.30;99.90
49236;DHT22;35067;48.134;8.378;2022-09-17T12:00:19;10.10;99.90
49236;DHT22;35067;48.134;8.378;2022-09-17T12:02:25;9.60;99.90
49236;DHT22;35067;48.134;8.378;2022-09-17T12:04:42;9.70;99.90
49236;DHT22;35067;48.134;8.378;2022-09-17T12:06:58;9.90;99.90
49236;DHT22;35067;48.134;8.378;2022-09-17T12:09:21;10.80;99.90
49236;DHT22;35067;48.134;8.378;2022-09-17T12:13:43;13.00;94.50
49236;DHT22;35067;48.134;8.378;2022-09-17T12:15:50;13.30;90.20
49236;DHT22;35067;48.134;8.378;2022-09-17T12:20:31;14.00;87.10
49236;DHT22;35067;48.134;8.378;2022-09-17T12:22:38;13.90;85.00
49236;DHT22;35067;48.134;8.378;2022-09-17T12:24:40;13.40;87.80
49236;DHT22;35067;48.134;8.378;2022-09-17T12:33:56;12.90;91.10
49236;DHT22;35067;48.134;8.378;2022-09-17T12:41:22;15.40;69.70
49236;DHT22;35067;48.134;8.378;2022-09-17T12:48:15;12.40;84.10
49236;DHT22;35067;48.134;8.378;2022-09-17T12:53:11;12.90;82.70
49236;DHT22;35067;48.134;8.378;2022-09-17T12:55:33;14.10;77.60
49236;DHT22;35067;48.134;8.378;2022-09-17T13:00:12;17.90;60.30
49236;DHT22;35067;48.134;8.378;2022-09-17T13:02:32;18.10;53.60
49236;DHT22;35067;48.134;8.378;2022-09-17T13:15:33;17.40;60.90
49236;DHT22;35067;48.134;8.378;2022-09-17T13:18:02;17.50;57.90
49236;DHT22;35067;48.134;8.378;2022-09-17T13:20:30;18.70;51.80
49236;DHT22;35067;48.134;8.378;2022-09-17T13:22:43;19.90;47.60
49236;DHT22;35067;48.134;8.378;2022-09-17T13:24:46;18.70;48.80
49236;DHT22;35067;48.134;8.378;2022-09-17T13:26:48;18.30;49.50
49236;DHT22;35067;48.134;8.378;2022-09-17T13:28:50;19.30;49.30
49236;DHT22;35067;48.134;8.378;2022-09-17T13:31:00;19.30;49.70
49236;DHT22;35067;48.134;8.378;2022-09-17T13:33:03;19.20;48.90
49236;DHT22;35067;48.134;8.378;2022-09-17T13:37:18;17.60;51.30
49236;DHT22;35067;48.134;8.378;2022-09-17T13:41:45;15.20;60.50
49236;DHT22;35067;48.134;8.378;2022-09-17T13:43:46;15.40;63.10
49236;DHT22;35067;48.134;8.378;2022-09-17T13:48:20;16.10;55.50
49236;DHT22;35067;48.134;8.378;2022-09-17T13:50:43;16.50;52.80
49236;DHT22;35067;48.134;8.378;2022-09-17T13:52:46;17.90;47.90
49236;DHT22;35067;48.134;8.378;2022-09-17T13:54:49;16.70;49.80
49236;DHT22;35067;48.134;8.378;2022-09-17T13:57:03;15.50;53.90
49236;DHT22;35067;48.134;8.378;2022-09-17T13:59:10;15.80;55.20
49236;DHT22;35067;48.134;8.378;2022-09-17T14:01:13;15.90;54.10
49236;DHT22;35067;48.134;8.378;2022-09-17T14:03:51;15.80;54.00
49236;DHT22;35067;48.134;8.378;2022-09-17T14:05:56;16.30;55.20
49236;DHT22;35067;48.134;8.378;2022-09-17T14:08:11;16.20;56.30
49236;DHT22;35067;48.134;8.378;2022-09-17T14:14:50;14.90;58.90
49236;DHT22;35067;48.134;8.378;2022-09-17T14:16:51;14.20;59.70
49236;DHT22;35067;48.134;8.378;2022-09-17T14:21:23;15.50;56.10
49236;DHT22;35067;48.134;8.378;2022-09-17T14:23:26;15.50;55.20
49236;DHT22;35067;48.134;8.378;2022-09-17T14:25:41;14.60;60.60
49236;DHT22;35067;48.134;8.378;2022-09-17T14:27:57;14.50;62.50
49236;DHT22;35067;48.134;8.378;2022-09-17T14:30:09;15.90;56.50
49236;DHT22;35067;48.134;8.378;2022-09-17T14:34:54;14.30;63.70
49236;DHT22;35067;48.134;8.378;2022-09-17T14:36:56;14.10;64.80
49236;DHT22;35067;48.134;8.378;2022-09-17T14:38:58;13.40;65.70
49236;DHT22;35067;48.134;8.378;2022-09-17T14:41:04;13.00;68.10
49236;DHT22;35067;48.134;8.378;2022-09-17T14:43:21;12.80;71.00
49236;DHT22;35067;48.134;8.378;2022-09-17T14:45:32;13.00;69.80
49236;DHT22;35067;48.134;8.378;2022-09-17T14:47:36;13.40;69.20
49236;DHT22;35067;48.134;8.378;2022-09-17T14:49:37;14.30;61.60
49236;DHT22;35067;48.134;8.378;2022-09-17T14:51:40;14.50;61.70
49236;DHT22;35067;48.134;8.378;2022-09-17T14:53:42;15.60;59.00
49236;DHT22;35067;48.134;8.378;2022-09-17T14:55:46;16.90;52.80
49236;DHT22;35067;48.134;8.378;2022-09-17T14:57:53;18.20;51.20
49236;DHT22;35067;48.134;8.378;2022-09-17T14:59:58;19.10;47.80
49236;DHT22;35067;48.134;8.378;2022-09-17T15:01:59;20.40;43.70
49236;DHT22;35067;48.134;8.378;2022-09-17T15:04:20;19.40;44.10
49236;DHT22;35067;48.134;8.378;2022-09-17T15:06:22;18.70;48.20
49236;DHT22;35067;48.134;8.378;2022-09-17T15:08:25;18.60;46.00
49236;DHT22;35067;48.134;8.378;2022-09-17T15:10:28;17.80;47.00
49236;DHT22;35067;48.134;8.378;2022-09-17T15:12:29;18.30;49.40
49236;DHT22;35067;48.134;8.378;2022-09-17T15:14:32;17.70;47.00
49236;DHT22;35067;48.134;8.378;2022-09-17T15:16:34;18.00;48.80
49236;DHT22;35067;48.134;8.378;2022-09-17T15:18:53;18.70;47.60
49236;DHT22;35067;48.134;8.378;2022-09-17T15:20:56;19.30;46.00
49236;DHT22;35067;48.134;8.378;2022-09-17T15:23:25;20.00;43.80
49236;DHT22;35067;48.134;8.378;2022-09-17T15:25:28;19.70;43.80
49236;DHT22;35067;48.134;8.378;2022-09-17T15:27:48;18.20;46.20
49236;DHT22;35067;48.134;8.378;2022-09-17T15:29:58;16.90;50.70
49236;DHT22;35067;48.134;8.378;2022-09-17T15:32:04;16.50;50.30
49236;DHT22;35067;48.134;8.378;2022-09-17T15:34:05;16.30;52.00
49236;DHT22;35067;48.134;8.378;2022-09-17T15:36:23;16.00;52.30
49236;DHT22;35067;48.134;8.378;2022-09-17T15:38:28;16.80;51.20
49236;DHT22;35067;48.134;8.378;2022-09-17T15:40:35;17.00;49.80
49236;DHT22;35067;48.134;8.378;2022-09-17T15:42:37;16.90;50.10
49236;DHT22;35067;48.134;8.378;2022-09-17T15:44:38;17.40;50.50
49236;DHT22;35067;48.134;8.378;2022-09-17T15:46:39;17.50;48.80
49236;DHT22;35067;48.134;8.378;2022-09-17T15:48:40;16.60;48.20